Time;durP1;ratioP1;P1;durP2;ratioP2;P2;SDS_P1;SDS_P2;PMS_P1;PMS_P2;Temp;Humidity;BMP_temperature;BMP_pressure;BME280_temperature;BME280_humidity;BME280_pressure;Samples;Min_cycle;Max_cycle;Signal;HPM_P1;HPM_P2
2023/02/07 00:02:03;;;;;;;11.75;6.47;;;;;;;;;;5054408;28;20100;-60
2023/02/07 00:04:29;;;;;;;11.50;5.80;;;;;;;;;;5053596;28;20121;-61
2023/02/07 00:06:55;;;;;;;11.30;6.25;;;;;;;;;;5054470;28;20417;-59
2023/02/07 00:09:21;;;;;;;12.02;6.65;;;;;;;;;;5054239;28;20039;-60
2023/02/07 00:11:47;;;;;;;11.35;5.95;;;;;;;;;;5053913;28;20070;-60
2023/02/07 00:14:13;;;;;;;11.13;5.80;;;;;;;;;;5054170;28;20031;-61
2023/02/07 00:16:40;;;;;;;10.00;5.80;;;;;;;;;;5053812;28;20033;-61
2023/02/07 00:19:06;;;;;;;14.10;5.88;;;;;;;;;;5053667;28;20025;-61
2023/02/07 00:21:32;;;;;;;10.20;5.75;;;;;;;;;;5053792;28;20065;-61
2023/02/07 00:23:58;;;;;;;11.68;5.57;;;;;;;;;;5053801;28;20060;-60
2023/02/07 00:26:25;;;;;;;9.88;5.28;;;;;;;;;;5054168;28;20124;-61
2023/02/07 00:28:51;;;;;;;12.27;5.78;;;;;;;;;;5053826;28;20481;-61
2023/02/07 00:31:17;;;;;;;9.73;5.95;;;;;;;;;;5053872;28;20103;-61
2023/02/07 00:33:44;;;;;;;10.27;5.10;;;;;;;;;;5053351;28;20493;-62
2023/02/07 00:36:12;;;;;;;9.88;5.95;;;;;;;;;;5053662;28;20096;-61
2023/02/07 00:38:38;;;;;;;11.70;5.90;;;;;;;;;;5053381;28;20029;-62
2023/02/07 00:41:04;;;;;;;9.80;5.60;;;;;;;;;;5053797;28;20049;-62
2023/02/07 00:43:31;;;;;;;8.95;5.60;;;;;;;;;;5053347;28;20072;-62
2023/02/07 00:45:58;;;;;;;9.48;5.45;;;;;;;;;;5054242;28;20377;-61
2023/02/07 00:48:24;;;;;;;9.80;5.28;;;;;;;;;;5053460;28;20055;-62
2023/02/07 00:50:50;;;;;;;9.18;4.88;;;;;;;;;;5053201;28;20025;-62
2023/02/07 00:53:16;;;;;;;11.25;6.40;;;;;;;;;;5053215;28;20091;-62
2023/02/07 00:55:42;;;;;;;11.55;5.53;;;;;;;;;;5053170;28;20029;-62
2023/02/07 00:58:08;;;;;;;9.18;5.40;;;;;;;;;;5053550;28;20036;-61
2023/02/07 01:00:34;;;;;;;10.02;5.80;;;;;;;;;;5053046;28;20104;-62
2023/02/07 01:03:00;;;;;;;10.38;5.10;;;;;;;;;;5052558;28;20412;-62
2023/02/07 01:05:26;;;;;;;9.25;5.63;;;;;;;;;;5053392;28;20021;-60
2023/02/07 01:07:52;;;;;;;9.75;4.88;;;;;;;;;;5052427;28;20040;-62
2023/02/07 01:10:18;;;;;;;12.52;6.20;;;;;;;;;;5053158;28;20033;-62
2023/02/07 01:12:44;;;;;;;9.50;4.90;;;;;;;;;;5052867;28;20028;-62
2023/02/07 01:15:10;;;;;;;11.63;5.15;;;;;;;;;;5052997;28;20382;-62
2023/02/07 01:17:36;;;;;;;10.50;5.60;;;;;;;;;;5052132;28;20040;-61
2023/02/07 01:20:02;;;;;;;9.82;5.53;;;;;;;;;;5052456;28;20021;-61
2023/02/07 01:22:28;;;;;;;9.32;4.85;;;;;;;;;;5052707;28;20086;-60
2023/02/07 01:24:54;;;;;;;10.68;5.55;;;;;;;;;;5053058;28;20186;-61
2023/02/07 01:27:21;;;;;;;9.40;4.95;;;;;;;;;;5052772;28;20025;-62
2023/02/07 01:29:47;;;;;;;9.75;5.20;;;;;;;;;;5052557;28;20410;-62
2023/02/07 01:32:13;;;;;;;9.35;5.15;;;;;;;;;;5052600;28;20495;-62
2023/02/07 01:34:39;;;;;;;9.80;4.65;;;;;;;;;;5052004;28;20029;-63
2023/02/07 01:37:05;;;;;;;10.05;4.55;;;;;;;;;;5052596;28;20490;-62
2023/02/07 01:39:31;;;;;;;8.15;4.50;;;;;;;;;;5052228;28;20090;-60
2023/02/07 01:41:57;;;;;;;10.95;5.20;;;;;;;;;;5052537;28;20025;-60
2023/02/07 01:44:23;;;;;;;8.95;4.82;;;;;;;;;;5052507;28;20047;-61
2023/02/07 01:46:49;;;;;;;9.63;5.32;;;;;;;;;;5052087;28;20021;-62
2023/02/07 01:49:16;;;;;;;8.30;5.30;;;;;;;;;;5051862;28;20028;-60
2023/02/07 01:51:45;;;;;;;12.80;5.00;;;;;;;;;;5051872;28;20366;-61
2023/02/07 01:54:12;;;;;;;9.93;4.82;;;;;;;;;;5034333;28;20052;-61
2023/02/07 01:56:40;;;;;;;9.80;4.35;;;;;;;;;;5052013;28;20028;-59
2023/02/07 01:59:06;;;;;;;9.55;4.93;;;;;;;;;;5052120;28;20495;-61
2023/02/07 02:01:32;;;;;;;12.35;6.00;;;;;;;;;;5051793;28;20017;-60
2023/02/07 02:03:58;;;;;;;8.00;4.82;;;;;;;;;;5051411;28;20040;-61
2023/02/07 02:06:25;;;;;;;8.75;4.95;;;;;;;;;;5052166;28;20060;-62
2023/02/07 02:08:54;;;;;;;8.05;5.03;;;;;;;;;;5051715;28;20074;-61
2023/02/07 02:11:39;;;;;;;10.98;5.18;;;;;;;;;;5051707;28;20068;-61
2023/02/07 02:14:23;;;;;;;9.38;5.30;;;;;;;;;;5051382;28;20033;-61
2023/02/07 02:16:57;;;;;;;10.25;4.82;;;;;;;;;;5051482;28;20099;-61
2023/02/07 02:19:41;;;;;;;9.77;5.18;;;;;;;;;;5052076;28;20028;-61
2023/02/07 02:22:27;;;;;;;7.70;4.40;;;;;;;;;;5051587;28;20182;-61
2023/02/07 02:25:29;;;;;;;10.57;4.72;;;;;;;;;;5051906;28;20077;-60
2023/02/07 02:28:18;;;;;;;9.93;4.82;;;;;;;;;;4948022;29;20520;-61
2023/02/07 02:30:47;;;;;;;9.10;4.57;;;;;;;;;;4999855;28;20041;-61
2023/02/07 02:33:36;;;;;;;8.38;4.80;;;;;;;;;;5031566;28;20075;-61
2023/02/07 02:36:05;;;;;;;9.73;4.78;;;;;;;;;;5031562;28;20470;-63
2023/02/07 02:38:37;;;;;;;8.70;4.57;;;;;;;;;;5031172;28;20111;-61
2023/02/07 02:41:22;;;;;;;9.07;4.55;;;;;;;;;;5034304;28;20115;-61
2023/02/07 02:43:55;;;;;;;7.88;4.47;;;;;;;;;;5050778;28;20029;-61
2023/02/07 02:46:23;;;;;;;9.95;5.00;;;;;;;;;;5051171;28;20032;-61
2023/02/07 02:48:49;;;;;;;10.48;5.20;;;;;;;;;;5050990;28;20477;-61
2023/02/07 02:51:15;;;;;;;9.77;5.22;;;;;;;;;;5050934;28;20044;-61
2023/02/07 02:53:50;;;;;;;10.95;5.28;;;;;;;;;;5050833;28;20386;-62
2023/02/07 02:56:23;;;;;;;10.37;4.60;;;;;;;;;;5050816;28;20013;-60
2023/02/07 02:58:52;;;;;;;8.23;4.88;;;;;;;;;;5050886;28;20096;-61
2023/02/07 03:01:37;;;;;;;8.65;4.82;;;;;;;;;;5050989;28;20399;-61
2023/02/07 03:04:19;;;;;;;7.20;4.13;;;;;;;;;;5050910;28;20029;-61
2023/02/07 03:06:51;;;;;;;7.82;4.60;;;;;;;;;;5050557;28;20127;-60
2023/02/07 03:09:28;;;;;;;7.57;4.38;;;;;;;;;;5050877;28;20274;-59
2023/02/07 03:12:14;;;;;;;9.38;4.57;;;;;;;;;;5050818;28;20029;-61
2023/02/07 03:14:50;;;;;;;7.80;3.85;;;;;;;;;;5033746;28;20107;-61
2023/02/07 03:17:16;;;;;;;;;;;;;;;;;;5051330;28;20032;-61
2023/02/07 03:20:05;;;;;;;8.73;4.32;;;;;;;;;;5050632;28;19905;-61
2023/02/07 03:22:33;;;;;;;8.68;4.28;;;;;;;;;;5004539;28;20036;-60
2023/02/07 03:25:00;;;;;;;8.02;4.43;;;;;;;;;;5050322;28;20039;-62
2023/02/07 03:27:28;;;;;;;11.18;5.05;;;;;;;;;;5051094;28;20025;-61
2023/02/07 03:29:56;;;;;;;10.35;4.72;;;;;;;;;;5054252;28;20531;-59
2023/02/07 03:32:24;;;;;;;9.40;4.40;;;;;;;;;;5057434;28;20033;-61
2023/02/07 03:34:53;;;;;;;8.32;4.28;;;;;;;;;;5057008;28;20029;-61
2023/02/07 03:37:27;;;;;;;7.80;4.07;;;;;;;;;;5056791;28;20033;-59
2023/02/07 03:39:53;;;;;;;11.02;4.40;;;;;;;;;;5057515;28;20027;-60
2023/02/07 03:42:28;;;;;;;7.65;4.32;;;;;;;;;;5057131;28;20133;-60
2023/02/07 03:44:55;;;;;;;8.70;4.40;;;;;;;;;;5057435;28;20481;-61
2023/02/07 03:47:21;;;;;;;8.27;4.35;;;;;;;;;;5057103;28;20161;-62
2023/02/07 03:49:47;;;;;;;8.32;4.22;;;;;;;;;;5056887;28;20517;-58
2023/02/07 03:52:13;;;;;;;11.48;4.97;;;;;;;;;;5056669;28;20068;-60
2023/02/07 03:54:39;;;;;;;7.55;4.25;;;;;;;;;;5056959;28;20025;-60
2023/02/07 03:57:05;;;;;;;6.53;4.20;;;;;;;;;;5057083;28;20382;-60
2023/02/07 03:59:31;;;;;;;10.77;4.65;;;;;;;;;;5056876;28;20021;-61
2023/02/07 04:01:57;;;;;;;6.95;3.75;;;;;;;;;;5057094;28;20028;-59
2023/02/07 04:04:23;;;;;;;8.43;4.85;;;;;;;;;;5056954;28;20097;-60
2023/02/07 04:06:49;;;;;;;8.73;4.13;;;;;;;;;;5056376;28;20071;-60
2023/02/07 04:09:15;;;;;;;5.90;3.75;;;;;;;;;;5057060;28;20064;-61
2023/02/07 04:11:41;;;;;;;11.20;4.20;;;;;;;;;;5056686;28;20035;-60
2023/02/07 04:14:07;;;;;;;8.50;4.65;;;;;;;;;;5056988;28;20021;-60
2023/02/07 04:16:33;;;;;;;8.88;4.55;;;;;;;;;;5056720;28;20021;-61
2023/02/07 04:18:59;;;;;;;5.82;3.63;;;;;;;;;;5056900;28;20021;-60
2023/02/07 04:21:26;;;;;;;10.80;4.50;;;;;;;;;;5056536;28;20555;-59
2023/02/07 04:23:52;;;;;;;12.82;4.22;;;;;;;;;;5056850;28;20025;-61
2023/02/07 04:26:18;;;;;;;7.32;3.72;;;;;;;;;;5056813;28;20396;-61
2023/02/07 04:28:44;;;;;;;9.23;4.70;;;;;;;;;;5056650;28;20025;-61
2023/02/07 04:31:10;;;;;;;8.63;4.10;;;;;;;;;;5056737;28;20389;-60
2023/02/07 04:33:36;;;;;;;7.38;4.00;;;;;;;;;;5056692;28;20033;-60
2023/02/07 04:36:03;;;;;;;8.25;4.20;;;;;;;;;;5056497;28;20036;-60
2023/02/07 04:38:29;;;;;;;8.35;4.40;;;;;;;;;;5056492;28;20048;-61
2023/02/07 04:41:03;;;;;;;8.90;4.38;;;;;;;;;;5054933;28;20474;-61
2023/02/07 04:43:29;;;;;;;9.40;4.50;;;;;;;;;;5053330;28;20032;-62
2023/02/07 04:45:55;;;;;;;7.03;3.78;;;;;;;;;;5053804;28;20537;-61
2023/02/07 04:48:21;;;;;;;6.15;3.72;;;;;;;;;;5053564;28;20159;-62
2023/02/07 04:50:47;;;;;;;7.22;4.05;;;;;;;;;;5052972;28;20412;-61
2023/02/07 04:53:13;;;;;;;8.82;4.47;;;;;;;;;;5053204;28;20098;-62
2023/02/07 04:55:39;;;;;;;11.05;4.00;;;;;;;;;;5053246;28;20025;-60
2023/02/07 04:58:05;;;;;;;7.97;3.67;;;;;;;;;;5053411;28;20025;-61
2023/02/07 05:00:32;;;;;;;9.05;4.88;;;;;;;;;;5052950;28;20092;-60
2023/02/07 05:02:58;;;;;;;8.23;3.85;;;;;;;;;;5052969;28;20033;-62
2023/02/07 05:05:24;;;;;;;8.05;4.45;;;;;;;;;;5052835;28;20037;-61
2023/02/07 05:07:50;;;;;;;8.50;4.47;;;;;;;;;;5051795;28;20049;-61
2023/02/07 05:10:16;;;;;;;8.00;4.20;;;;;;;;;;5053071;28;20064;-62
2023/02/07 05:12:42;;;;;;;6.30;3.67;;;;;;;;;;5052764;28;20021;-61
2023/02/07 05:15:08;;;;;;;10.85;4.45;;;;;;;;;;5052937;28;20021;-61
2023/02/07 05:17:34;;;;;;;10.60;4.45;;;;;;;;;;5052597;28;20020;-62
2023/02/07 05:20:01;;;;;;;7.95;4.57;;;;;;;;;;5052961;28;20033;-61
2023/02/07 05:22:27;;;;;;;8.52;4.03;;;;;;;;;;5053072;28;20027;-61
2023/02/07 05:24:53;;;;;;;7.97;4.53;;;;;;;;;;5053127;28;20037;-60
2023/02/07 05:27:19;;;;;;;9.13;4.35;;;;;;;;;;5052492;28;20016;-62
2023/02/07 05:29:45;;;;;;;7.47;4.07;;;;;;;;;;5052525;28;20086;-61
2023/02/07 05:34:56;;;;;;;9.38;4.68;;;;;;;;;;5053260;28;20090;-62
2023/02/07 05:37:22;;;;;;;7.53;3.75;;;;;;;;;;5052907;28;20033;-62
2023/02/07 05:39:48;;;;;;;8.57;4.15;;;;;;;;;;5052485;28;20056;-62
2023/02/07 05:42:14;;;;;;;8.25;4.22;;;;;;;;;;5052222;28;20021;-61
2023/02/07 05:44:40;;;;;;;8.65;4.30;;;;;;;;;;5052353;28;20068;-62
2023/02/07 05:47:07;;;;;;;8.45;4.93;;;;;;;;;;5052613;28;20473;-61
2023/02/07 05:49:33;;;;;;;8.38;3.95;;;;;;;;;;5052252;28;20033;-62
2023/02/07 05:51:59;;;;;;;7.75;4.45;;;;;;;;;;5052137;28;20028;-61
2023/02/07 05:54:25;;;;;;;9.75;4.97;;;;;;;;;;5052652;28;20036;-62
2023/02/07 05:56:51;;;;;;;9.60;4.30;;;;;;;;;;5051534;28;20025;-62
2023/02/07 05:59:17;;;;;;;5.93;3.47;;;;;;;;;;5052297;28;20041;-61
2023/02/07 06:01:43;;;;;;;9.15;4.70;;;;;;;;;;5051736;28;20473;-62
2023/02/07 06:04:09;;;;;;;7.53;4.15;;;;;;;;;;5052237;28;20041;-62
2023/02/07 06:06:35;;;;;;;9.20;4.55;;;;;;;;;;5051878;28;20033;-62
2023/02/07 06:09:01;;;;;;;7.63;3.70;;;;;;;;;;5052260;28;20031;-63
2023/02/07 06:11:27;;;;;;;7.32;4.05;;;;;;;;;;5050176;28;20029;-61
2023/02/07 06:13:53;;;;;;;5.88;3.83;;;;;;;;;;5052512;28;20472;-62
2023/02/07 06:16:19;;;;;;;9.52;4.25;;;;;;;;;;5051569;28;20070;-62
2023/02/07 06:18:45;;;;;;;9.70;4.20;;;;;;;;;;5034314;28;20033;-62
2023/02/07 06:21:11;;;;;;;6.68;4.18;;;;;;;;;;5051418;28;20100;-62
2023/02/07 06:23:36;;;;;;;5.45;3.03;;;;;;;;;;5051745;28;20048;-62
2023/02/07 06:26:02;;;;;;;8.98;3.90;;;;;;;;;;5051310;28;20020;-61
2023/02/07 06:28:28;;;;;;;6.63;3.55;;;;;;;;;;5050913;28;20037;-60
2023/02/07 06:30:54;;;;;;;6.95;3.58;;;;;;;;;;5052020;28;20020;-61
2023/02/07 06:33:20;;;;;;;8.73;4.20;;;;;;;;;;5050081;28;20029;-62
2023/02/07 06:35:46;;;;;;;8.45;3.83;;;;;;;;;;5051582;28;20025;-62
2023/02/07 06:38:13;;;;;;;7.03;3.65;;;;;;;;;;5051816;28;20020;-61
2023/02/07 06:40:39;;;;;;;9.00;4.60;;;;;;;;;;5050980;28;20071;-62
2023/02/07 06:43:05;;;;;;;6.97;4.55;;;;;;;;;;5051440;28;20118;-61
2023/02/07 06:45:31;;;;;;;8.30;3.70;;;;;;;;;;5051251;28;20116;-62
2023/02/07 06:47:57;;;;;;;5.72;3.35;;;;;;;;;;5050945;28;20078;-60
2023/02/07 06:50:23;;;;;;;10.45;4.05;;;;;;;;;;5051549;28;20070;-61
2023/02/07 06:52:49;;;;;;;6.93;3.67;;;;;;;;;;5050724;28;20024;-62
2023/02/07 06:55:15;;;;;;;7.20;3.75;;;;;;;;;;5051187;28;20029;-62
2023/02/07 06:57:41;;;;;;;7.85;3.95;;;;;;;;;;5051120;28;20028;-63
2023/02/07 07:00:08;;;;;;;10.77;4.03;;;;;;;;;;5051197;28;20052;-61
2023/02/07 07:02:34;;;;;;;8.85;3.80;;;;;;;;;;5049770;28;20033;-61
2023/02/07 07:05:00;;;;;;;8.15;3.67;;;;;;;;;;5050374;28;20116;-62
2023/02/07 07:07:26;;;;;;;10.93;4.45;;;;;;;;;;5050816;28;20063;-62
2023/02/07 07:09:52;;;;;;;9.93;4.45;;;;;;;;;;5049935;28;20029;-61
2023/02/07 07:12:18;;;;;;;6.65;4.18;;;;;;;;;;5050257;28;20039;-63
2023/02/07 07:14:44;;;;;;;10.52;4.30;;;;;;;;;;5049240;28;20025;-62
2023/02/07 07:17:10;;;;;;;8.18;4.45;;;;;;;;;;5050865;28;20478;-62
2023/02/07 07:19:36;;;;;;;14.38;5.53;;;;;;;;;;5049600;28;20059;-62
2023/02/07 07:22:02;;;;;;;10.20;4.88;;;;;;;;;;5050846;28;20029;-61
2023/02/07 07:24:28;;;;;;;19.27;5.53;;;;;;;;;;5049776;28;20041;-61
2023/02/07 07:26:55;;;;;;;12.35;4.72;;;;;;;;;;5050213;28;20033;-62
2023/02/07 07:29:21;;;;;;;10.98;4.28;;;;;;;;;;5049928;28;20032;-61
2023/02/07 07:31:47;;;;;;;11.52;5.32;;;;;;;;;;5049481;28;20434;-62
2023/02/07 07:34:13;;;;;;;12.95;4.65;;;;;;;;;;5049516;28;20031;-62
2023/02/07 07:36:39;;;;;;;10.80;5.65;;;;;;;;;;5049212;28;20032;-62
2023/02/07 07:39:07;;;;;;;12.23;5.05;;;;;;;;;;5049406;28;20397;-62
2023/02/07 07:41:33;;;;;;;9.15;4.53;;;;;;;;;;5048731;28;20066;-62
2023/02/07 07:43:59;;;;;;;8.00;4.95;;;;;;;;;;5049610;28;20029;-61
2023/02/07 07:46:25;;;;;;;11.07;5.97;;;;;;;;;;5050005;28;20508;-62
2023/02/07 07:48:51;;;;;;;9.85;5.25;;;;;;;;;;5050107;28;20025;-62
2023/02/07 07:51:17;;;;;;;12.27;4.95;;;;;;;;;;5049386;28;20044;-62
2023/02/07 07:53:43;;;;;;;11.02;5.45;;;;;;;;;;5048777;28;20025;-62
2023/02/07 07:56:09;;;;;;;12.50;5.45;;;;;;;;;;5049586;28;20481;-62
2023/02/07 07:58:35;;;;;;;10.63;5.28;;;;;;;;;;5048089;28;20029;-61
2023/02/07 08:01:01;;;;;;;8.65;4.78;;;;;;;;;;5049043;28;20044;-60
2023/02/07 08:03:28;;;;;;;12.23;4.85;;;;;;;;;;5048249;28;20033;-61
2023/02/07 08:05:54;;;;;;;11.93;4.80;;;;;;;;;;5050310;28;20052;-62
2023/02/07 08:08:20;;;;;;;13.82;5.60;;;;;;;;;;5048960;28;20031;-62
2023/02/07 08:10:46;;;;;;;11.48;4.90;;;;;;;;;;5050223;28;20021;-61
2023/02/07 08:13:12;;;;;;;9.48;4.97;;;;;;;;;;5050541;28;20507;-62
2023/02/07 08:15:38;;;;;;;11.52;5.22;;;;;;;;;;5050000;28;20025;-62
2023/02/07 08:18:05;;;;;;;9.90;4.75;;;;;;;;;;5052680;28;20065;-62
2023/02/07 08:20:31;;;;;;;11.60;5.70;;;;;;;;;;5033973;28;20041;-62
2023/02/07 08:22:57;;;;;;;10.65;5.03;;;;;;;;;;5034683;28;20033;-61
2023/02/07 08:25:24;;;;;;;9.52;5.95;;;;;;;;;;5034661;28;20378;-62
2023/02/07 08:27:50;;;;;;;7.90;4.40;;;;;;;;;;5034003;28;20053;-61
2023/02/07 08:30:17;;;;;;;9.38;4.88;;;;;;;;;;5034137;28;20552;-62
2023/02/07 08:32:43;;;;;;;7.30;4.20;;;;;;;;;;5033759;28;20041;-62
2023/02/07 08:35:09;;;;;;;10.55;4.60;;;;;;;;;;5034003;28;20543;-61
2023/02/07 08:37:35;;;;;;;7.95;5.10;;;;;;;;;;5033840;28;20029;-62
2023/02/07 08:40:02;;;;;;;8.43;4.60;;;;;;;;;;5033964;28;20382;-61
2023/02/07 08:42:28;;;;;;;8.98;4.30;;;;;;;;;;5033696;28;20158;-61
2023/02/07 08:44:55;;;;;;;10.27;5.38;;;;;;;;;;5034024;28;20454;-62
2023/02/07 08:47:21;;;;;;;8.73;5.07;;;;;;;;;;5033697;28;20036;-62
2023/02/07 08:49:47;;;;;;;8.65;5.20;;;;;;;;;;5033529;28;20037;-62
2023/02/07 08:52:13;;;;;;;9.57;5.30;;;;;;;;;;5033737;28;20017;-62
2023/02/07 08:54:39;;;;;;;11.70;6.05;;;;;;;;;;5033459;28;20037;-62
2023/02/07 08:57:05;;;;;;;10.05;4.97;;;;;;;;;;5033669;28;20025;-61
2023/02/07 08:59:31;;;;;;;9.10;5.05;;;;;;;;;;5033348;28;20081;-61
2023/02/07 09:01:57;;;;;;;9.15;5.60;;;;;;;;;;5033546;28;20386;-61
2023/02/07 09:04:23;;;;;;;7.07;4.75;;;;;;;;;;5033631;28;20128;-61
2023/02/07 09:06:49;;;;;;;8.52;4.95;;;;;;;;;;5033035;28;20033;-60
2023/02/07 09:09:15;;;;;;;8.18;4.57;;;;;;;;;;5033421;28;20033;-61
2023/02/07 09:11:42;;;;;;;9.80;5.13;;;;;;;;;;5033137;28;20386;-60
2023/02/07 09:14:08;;;;;;;6.60;4.32;;;;;;;;;;5033286;28;20092;-62
2023/02/07 09:16:35;;;;;;;7.82;4.78;;;;;;;;;;5033019;28;20021;-62
2023/02/07 09:19:01;;;;;;;8.65;4.40;;;;;;;;;;5033480;28;20029;-61
2023/02/07 09:21:26;;;;;;;7.88;4.65;;;;;;;;;;5033584;28;20033;-61
2023/02/07 09:23:53;;;;;;;6.80;4.40;;;;;;;;;;5033456;28;20030;-61
2023/02/07 09:26:25;;;;;;;7.55;4.47;;;;;;;;;;5033323;28;20393;-60
2023/02/07 09:28:51;;;;;;;8.13;4.32;;;;;;;;;;5032275;28;20040;-61
2023/02/07 09:31:17;;;;;;;8.60;4.40;;;;;;;;;;5033045;28;20081;-62
2023/02/07 09:33:43;;;;;;;9.13;4.55;;;;;;;;;;5033057;28;20030;-60
2023/02/07 09:36:17;;;;;;;8.27;4.53;;;;;;;;;;5033068;28;20105;-60
2023/02/07 09:38:43;;;;;;;8.48;4.40;;;;;;;;;;5033078;28;20457;-60
2023/02/07 09:41:21;;;;;;;6.78;4.55;;;;;;;;;;5032990;28;20025;-60
2023/02/07 09:44:01;;;;;;;8.73;4.78;;;;;;;;;;5032433;28;20087;-60
2023/02/07 09:46:30;;;;;;;7.22;4.60;;;;;;;;;;5033048;28;20124;-59
2023/02/07 09:49:16;;;;;;;7.07;4.28;;;;;;;;;;5033100;28;20084;-60
2023/02/07 09:51:44;;;;;;;6.93;4.85;;;;;;;;;;4982801;28;20516;-61
2023/02/07 09:54:24;;;;;;;8.48;4.88;;;;;;;;;;5051985;28;20037;-60
2023/02/07 09:56:55;;;;;;;9.85;4.75;;;;;;;;;;5052323;28;20086;-61
2023/02/07 09:59:39;;;;;;;7.40;4.35;;;;;;;;;;5052516;28;20452;-60
2023/02/07 10:02:23;;;;;;;10.82;5.53;;;;;;;;;;5052495;28;20512;-60
2023/02/07 10:04:51;;;;;;;7.53;4.75;;;;;;;;;;5052212;28;20044;-61
2023/02/07 10:07:17;;;;;;;9.38;4.95;;;;;;;;;;5052234;28;20549;-60
2023/02/07 10:09:44;;;;;;;8.30;5.10;;;;;;;;;;5052046;28;20108;-61
2023/02/07 10:12:29;;;;;;;8.88;5.32;;;;;;;;;;5052291;28;20075;-60
2023/02/07 10:15:12;;;;;;;7.43;5.38;;;;;;;;;;5052432;28;20033;-60
2023/02/07 10:17:42;;;;;;;8.70;5.38;;;;;;;;;;5051824;28;20504;-61
2023/02/07 10:20:17;;;;;;;9.90;5.15;;;;;;;;;;5052150;28;20056;-60
2023/02/07 10:22:46;;;;;;;8.68;5.45;;;;;;;;;;5051923;28;20508;-61
2023/02/07 10:25:34;;;;;;;8.70;5.03;;;;;;;;;;5052029;28;20068;-60
2023/02/07 10:28:16;;;;;;;8.70;4.90;;;;;;;;;;5003972;28;20033;-60
2023/02/07 10:30:50;;;;;;;8.48;5.07;;;;;;;;;;5051783;28;20032;-59
2023/02/07 10:33:21;;;;;;;8.88;5.00;;;;;;;;;;5051900;28;20037;-60
2023/02/07 10:35:48;;;;;;;9.25;5.57;;;;;;;;;;5051601;28;20457;-60
2023/02/07 10:38:23;;;;;;;11.18;5.82;;;;;;;;;;5051768;28;20378;-60
2023/02/07 10:40:58;;;;;;;10.00;5.68;;;;;;;;;;5050969;28;20112;-60
2023/02/07 10:43:29;;;;;;;11.85;5.68;;;;;;;;;;5052147;28;20098;-60
2023/02/07 10:45:58;;;;;;;8.13;5.30;;;;;;;;;;5051970;28;20078;-60
2023/02/07 10:48:24;;;;;;;10.60;6.25;;;;;;;;;;5051795;28;20021;-60
2023/02/07 10:50:50;;;;;;;10.85;7.20;;;;;;;;;;5051349;28;20508;-60
2023/02/07 10:53:35;;;;;;;11.40;6.22;;;;;;;;;;5051603;28;20025;-59
2023/02/07 10:56:01;;;;;;;8.80;5.30;;;;;;;;;;5051338;28;20025;-60
2023/02/07 10:58:38;;;;;;;9.25;5.80;;;;;;;;;;5051306;28;20031;-60
2023/02/07 11:01:04;;;;;;;10.05;6.03;;;;;;;;;;5051203;28;20435;-60
2023/02/07 11:03:30;;;;;;;10.10;5.50;;;;;;;;;;5051090;28;20535;-60
2023/02/07 11:06:06;;;;;;;12.27;6.63;;;;;;;;;;5051470;28;20037;-62
2023/02/07 11:08:33;;;;;;;15.80;7.53;;;;;;;;;;5051050;28;20025;-62
2023/02/07 11:11:16;;;;;;;13.20;6.45;;;;;;;;;;5050416;28;20036;-60
2023/02/07 11:13:48;;;;;;;15.07;6.90;;;;;;;;;;5031261;28;20033;-60
2023/02/07 11:16:16;;;;;;;16.38;6.43;;;;;;;;;;5031413;28;20058;-61
2023/02/07 11:18:46;;;;;;;9.40;6.60;;;;;;;;;;5031090;28;20029;-60
2023/02/07 11:21:26;;;;;;;12.13;6.85;;;;;;;;;;5031244;28;20017;-60
2023/02/07 11:23:53;;;;;;;16.48;7.65;;;;;;;;;;5031437;28;20454;-60
2023/02/07 11:26:21;;;;;;;16.33;7.70;;;;;;;;;;5031098;28;20021;-60
2023/02/07 11:28:51;;;;;;;16.60;7.53;;;;;;;;;;5030948;28;20330;-60
2023/02/07 11:31:17;;;;;;;14.23;7.25;;;;;;;;;;5031122;28;20426;-59
2023/02/07 11:33:44;;;;;;;18.00;8.30;;;;;;;;;;5031033;28;20030;-60
2023/02/07 11:36:16;;;;;;;20.35;7.93;;;;;;;;;;5031097;28;20386;-63
2023/02/07 11:38:55;;;;;;;18.90;8.05;;;;;;;;;;5030869;28;20021;-60
2023/02/07 11:41:26;;;;;;;17.40;8.13;;;;;;;;;;5031055;28;20033;-61
2023/02/07 11:43:54;;;;;;;18.52;8.63;;;;;;;;;;5031378;28;20108;-60
2023/02/07 11:46:21;;;;;;;20.05;7.82;;;;;;;;;;5031013;28;20029;-60
2023/02/07 11:48:48;;;;;;;24.13;8.88;;;;;;;;;;5030478;28;20025;-60
2023/02/07 11:51:16;;;;;;;17.67;8.13;;;;;;;;;;5031624;28;20101;-61
2023/02/07 11:53:45;;;;;;;21.50;8.15;;;;;;;;;;5034779;28;20526;-65
2023/02/07 11:56:22;;;;;;;23.13;7.70;;;;;;;;;;5034949;28;20478;-59
2023/02/07 11:58:49;;;;;;;20.10;8.20;;;;;;;;;;5036601;28;20029;-53
2023/02/07 12:01:17;;;;;;;17.05;7.65;;;;;;;;;;5053776;28;20520;-54
2023/02/07 12:03:47;;;;;;;20.25;7.55;;;;;;;;;;5053613;28;20028;-59
2023/02/07 12:06:15;;;;;;;23.77;8.90;;;;;;;;;;5052454;28;20098;-60
2023/02/07 12:08:41;;;;;;;22.58;8.77;;;;;;;;;;5052846;28;20021;-59
2023/02/07 12:11:15;;;;;;;17.92;8.07;;;;;;;;;;5053805;28;20033;-59
2023/02/07 12:13:45;;;;;;;14.02;7.63;;;;;;;;;;5054291;28;20025;-59
2023/02/07 12:16:15;;;;;;;17.98;7.70;;;;;;;;;;5054407;28;20029;-59
2023/02/07 12:18:42;;;;;;;19.33;8.52;;;;;;;;;;5054272;28;20025;-59
2023/02/07 12:21:17;;;;;;;14.25;7.22;;;;;;;;;;5054320;28;20036;-59
2023/02/07 12:23:47;;;;;;;17.00;6.88;;;;;;;;;;5053974;28;20048;-59
2023/02/07 12:26:32;;;;;;;18.60;7.00;;;;;;;;;;5054527;28;20374;-59
2023/02/07 12:29:06;;;;;;;17.10;8.45;;;;;;;;;;5054157;28;20021;-59
2023/02/07 12:31:32;;;;;;;16.63;7.23;;;;;;;;;;5053534;28;20039;-60
2023/02/07 12:34:17;;;;;;;13.70;7.25;;;;;;;;;;5054736;28;20036;-59
2023/02/07 12:36:45;;;;;;;16.98;7.40;;;;;;;;;;5053799;28;20555;-59
2023/02/07 12:39:21;;;;;;;17.90;6.95;;;;;;;;;;5054057;28;20035;-59
2023/02/07 12:41:50;;;;;;;12.50;6.25;;;;;;;;;;5053615;28;20028;-60
2023/02/07 12:44:33;;;;;;;15.38;6.40;;;;;;;;;;5053507;28;20064;-59
2023/02/07 12:47:09;;;;;;;19.30;7.55;;;;;;;;;;5053515;28;20107;-59
2023/02/07 12:50:11;;;;;;;14.43;7.57;;;;;;;;;;5053538;28;20055;-60
2023/02/07 12:52:39;;;;;;;12.63;7.00;;;;;;;;;;4953023;29;20062;-59
2023/02/07 12:55:20;;;;;;;13.13;6.72;;;;;;;;;;5035423;28;20056;-59
2023/02/07 12:57:46;;;;;;;15.65;7.00;;;;;;;;;;5053515;28;20025;-59
2023/02/07 13:00:18;;;;;;;16.00;6.90;;;;;;;;;;5053716;28;20032;-59
2023/02/07 13:02:57;;;;;;;13.98;6.78;;;;;;;;;;5052315;28;20029;-59
2023/02/07 13:05:38;;;;;;;18.80;6.88;;;;;;;;;;5053784;28;20039;-59
2023/02/07 13:08:10;;;;;;;10.85;6.10;;;;;;;;;;5053603;28;20029;-59
2023/02/07 13:10:54;;;;;;;14.13;7.25;;;;;;;;;;5053025;28;20037;-59
2023/02/07 13:13:23;;;;;;;13.07;6.20;;;;;;;;;;5053529;28;20037;-60
2023/02/07 13:15:52;;;;;;;12.27;6.57;;;;;;;;;;5053189;28;20166;-59
2023/02/07 13:18:21;;;;;;;10.55;6.03;;;;;;;;;;5053333;28;20028;-60
2023/02/07 13:21:14;;;;;;;12.23;7.10;;;;;;;;;;5052987;28;20032;-60
2023/02/07 13:23:42;;;;;;;12.85;6.57;;;;;;;;;;5048571;28;20048;-60
2023/02/07 13:26:10;;;;;;;12.60;6.00;;;;;;;;;;5053212;28;20036;-60
2023/02/07 13:28:42;;;;;;;11.75;6.53;;;;;;;;;;5052850;28;20021;-60
2023/02/07 13:31:10;;;;;;;14.15;6.53;;;;;;;;;;5053131;28;20461;-60
2023/02/07 13:33:38;;;;;;;15.23;6.68;;;;;;;;;;5052002;28;20032;-60
2023/02/07 13:36:15;;;;;;;11.88;6.53;;;;;;;;;;5052862;28;20029;-58
2023/02/07 13:38:49;;;;;;;11.95;6.57;;;;;;;;;;5052866;28;20075;-60
2023/02/07 13:41:18;;;;;;;11.07;6.27;;;;;;;;;;5052936;28;20025;-60
2023/02/07 13:44:05;;;;;;;10.77;5.68;;;;;;;;;;5052410;28;20279;-61
2023/02/07 13:46:31;;;;;;;13.30;5.95;;;;;;;;;;5051993;28;20029;-60
2023/02/07 13:49:00;;;;;;;14.02;7.13;;;;;;;;;;5051914;28;20037;-61
2023/02/07 13:51:42;;;;;;;9.77;6.28;;;;;;;;;;5052162;28;20039;-61
2023/02/07 13:54:27;;;;;;;11.35;6.47;;;;;;;;;;5050515;28;20036;-60
2023/02/07 14:00:03;;;;;;;10.52;6.05;;;;;;;;;;5052505;28;20401;-60
2023/02/07 14:02:31;;;;;;;8.73;5.73;;;;;;;;;;5052352;28;20032;-60
2023/02/07 14:04:58;;;;;;;10.88;5.70;;;;;;;;;;5052293;28;20041;-60
2023/02/07 14:07:28;;;;;;;11.57;6.30;;;;;;;;;;5052551;28;20032;-60
2023/02/07 14:09:58;;;;;;;11.02;6.28;;;;;;;;;;5052683;28;20108;-59
2023/02/07 14:12:28;;;;;;;11.00;6.22;;;;;;;;;;5052463;28;20401;-60
2023/02/07 14:14:54;;;;;;;11.80;6.22;;;;;;;;;;5052020;28;20053;-60
2023/02/07 14:17:26;;;;;;;9.48;5.13;;;;;;;;;;5052329;28;20021;-59
2023/02/07 14:19:56;;;;;;;11.60;6.22;;;;;;;;;;5052277;28;20029;-60
2023/02/07 14:22:30;;;;;;;9.93;5.65;;;;;;;;;;5052475;28;20029;-60
2023/02/07 14:24:58;;;;;;;12.40;5.97;;;;;;;;;;5052269;28;20036;-60
2023/02/07 14:27:25;;;;;;;9.43;5.80;;;;;;;;;;5052179;28;20369;-60
2023/02/07 14:29:53;;;;;;;9.68;5.65;;;;;;;;;;5051910;28;20493;-60
2023/02/07 14:32:19;;;;;;;8.95;5.53;;;;;;;;;;5051916;28;20021;-60
2023/02/07 14:34:59;;;;;;;9.27;5.22;;;;;;;;;;5051650;28;20036;-60
2023/02/07 14:37:55;;;;;;;9.00;5.22;;;;;;;;;;5052027;28;20132;-59
2023/02/07 14:40:30;;;;;;;9.48;5.60;;;;;;;;;;5031201;28;20041;-59
2023/02/07 14:42:56;;;;;;;7.88;5.03;;;;;;;;;;5051724;28;20044;-60
2023/02/07 14:45:22;;;;;;;7.53;5.50;;;;;;;;;;5051775;28;20037;-60
2023/02/07 14:47:49;;;;;;;9.00;4.80;;;;;;;;;;5051458;28;20108;-61
2023/02/07 14:50:18;;;;;;;8.75;5.35;;;;;;;;;;5051625;28;20030;-61
2023/02/07 14:52:45;;;;;;;8.13;5.35;;;;;;;;;;5051398;28;20021;-60
2023/02/07 14:55:25;;;;;;;9.20;5.03;;;;;;;;;;5051514;28;20102;-61
2023/02/07 14:57:56;;;;;;;9.43;5.55;;;;;;;;;;5051154;28;20028;-61